createdAt,value
2023-04-06T00:00:11.064Z,101103.56
2023-04-06T00:02:38.202Z,101095.06
2023-04-06T00:05:05.099Z,101054.94
2023-04-06T00:07:31.731Z,101088.31
2023-04-06T00:09:58.260Z,101000.22
2023-04-06T00:12:25.326Z,101046.81
2023-04-06T00:14:51.899Z,100989.78
2023-04-06T00:17:18.815Z,101078.44
2023-04-06T00:19:45.585Z,101097.66
2023-04-06T00:22:12.398Z,101047.22
2023-04-06T00:24:38.978Z,101091.94
2023-04-06T00:27:05.685Z,101070.81
2023-04-06T00:29:32.249Z,101062.19
2023-04-06T00:31:59.112Z,100991.88
2023-04-06T00:34:25.819Z,101018.19
2023-04-06T00:36:52.861Z,100907.41
2023-04-06T00:39:20.914Z,101053.75
2023-04-06T00:41:51.444Z,101065.78
2023-04-06T00:44:18.108Z,101002.88
2023-04-06T00:46:44.883Z,101000.84
2023-04-06T00:49:12.069Z,101048.84
2023-04-06T00:51:38.944Z,100871.97
2023-04-06T00:54:06.505Z,101030.75
2023-04-06T00:56:33.085Z,101052.22
2023-04-06T00:58:59.928Z,100976.50
2023-04-06T01:01:27.362Z,100810.97
2023-04-06T01:03:54.982Z,100992.09
2023-04-06T01:06:21.597Z,101005.59
2023-04-06T01:08:48.247Z,100995.56
2023-04-06T01:11:14.929Z,100952.09
2023-04-06T01:13:41.757Z,100957.97
2023-04-06T01:16:08.547Z,100979.09
2023-04-06T01:18:36.265Z,100946.88
2023-04-06T01:21:02.978Z,101029.09
2023-04-06T01:23:29.604Z,100977.47
2023-04-06T01:25:56.680Z,100988.31
2023-04-06T01:28:23.414Z,101021.88
2023-04-06T01:30:50.596Z,101019.88
2023-04-06T01:33:17.228Z,101009.00
2023-04-06T01:35:44.301Z,100853.06
2023-04-06T01:38:10.968Z,101012.34
2023-04-06T01:40:37.955Z,100841.16
2023-04-06T01:43:04.569Z,100983.75
2023-04-06T01:45:31.550Z,100863.22
2023-04-06T01:47:58.223Z,100983.69
2023-04-06T01:50:25.011Z,100952.31
2023-04-06T01:52:54.691Z,100983.69
2023-04-06T01:55:21.370Z,100958.44
2023-04-06T01:57:47.918Z,100968.50
2023-04-06T02:00:15.451Z,100954.78
2023-04-06T02:02:42.155Z,100992.72
2023-04-06T02:05:09.490Z,100951.25
2023-04-06T02:07:36.094Z,100996.41
2023-04-06T02:10:03.895Z,100957.97
2023-04-06T02:12:31.834Z,100930.16
2023-04-06T02:14:58.972Z,100942.06
2023-04-06T02:17:25.566Z,100952.28
2023-04-06T02:19:52.494Z,100968.81
2023-04-06T02:22:19.152Z,100929.84
2023-04-06T02:24:46.594Z,100950.69
2023-04-06T02:27:14.518Z,100919.66
2023-04-06T02:29:41.402Z,100965.06
2023-04-06T02:32:08.451Z,100982.56
2023-04-06T02:34:35.401Z,100968.09
2023-04-06T02:37:02.534Z,100990.84
2023-04-06T02:39:29.205Z,100989.88
2023-04-06T02:41:57.033Z,100932.25
2023-04-06T02:44:24.008Z,100979.25
2023-04-06T02:46:51.327Z,100962.69
2023-04-06T02:49:17.928Z,100938.91
2023-04-06T02:51:44.493Z,100986.34
2023-04-06T02:54:11.209Z,100971.59
2023-04-06T02:56:37.910Z,100964.22
2023-04-06T02:59:04.665Z,100953.94
2023-04-06T03:01:31.606Z,100851.47
2023-04-06T03:03:58.235Z,100857.75
2023-04-06T03:06:24.811Z,100976.41
2023-04-06T03:08:51.593Z,100992.53
2023-04-06T03:11:18.220Z,100973.97
2023-04-06T03:13:47.970Z,100853.94
2023-04-06T03:16:14.673Z,100951.16
2023-04-06T03:18:41.325Z,100959.13
2023-04-06T03:21:07.887Z,100962.28
2023-04-06T03:23:34.631Z,100842.41
2023-04-06T03:26:02.448Z,100867.75
2023-04-06T03:28:31.417Z,100946.63
2023-04-06T03:30:58.079Z,100944.44
2023-04-06T03:33:24.900Z,100961.19
2023-04-06T03:35:52.113Z,100966.13
2023-04-06T03:38:18.875Z,100790.97
2023-04-06T03:40:47.564Z,100942.78
2023-04-06T03:43:14.523Z,100878.63
2023-04-06T03:45:41.141Z,100882.41
2023-04-06T03:48:08.044Z,100968.28
2023-04-06T03:50:34.929Z,100919.53
2023-04-06T03:53:04.035Z,100840.56
2023-04-06T03:55:30.853Z,100984.63
2023-04-06T03:57:57.562Z,100955.50
2023-04-06T04:00:24.131Z,100594.69
2023-04-06T04:02:50.994Z,100985.38
2023-04-06T04:05:17.974Z,100921.13
2023-04-06T04:07:44.706Z,100875.66
2023-04-06T04:10:11.259Z,100902.00
2023-04-06T04:12:37.786Z,100930.50
2023-04-06T04:15:04.898Z,100964.25
2023-04-06T04:17:31.550Z,100996.84
2023-04-06T04:19:58.160Z,100993.91
2023-04-06T04:22:24.780Z,100944.75
2023-04-06T04:24:51.494Z,100974.41
2023-04-06T04:27:18.098Z,100917.22
2023-04-06T04:29:44.803Z,100968.47
2023-04-06T04:32:11.731Z,100999.41
2023-04-06T04:34:41.166Z,100847.03
2023-04-06T04:37:07.921Z,100964.84
2023-04-06T04:39:34.542Z,100919.16
2023-04-06T04:42:01.542Z,100918.00
2023-04-06T04:44:28.127Z,100939.22
2023-04-06T04:46:54.749Z,100945.34
2023-04-06T04:49:21.352Z,100917.13
2023-04-06T04:51:48.123Z,100928.03
2023-04-06T04:54:14.959Z,100965.50
2023-04-06T04:56:41.544Z,100982.00
2023-04-06T04:59:08.918Z,100978.66
2023-04-06T05:01:47.423Z,100960.22
2023-04-06T05:04:21.558Z,100931.72
2023-04-06T05:06:48.152Z,100993.47
2023-04-06T05:09:14.981Z,100959.56
2023-04-06T05:11:41.667Z,100957.78
2023-04-06T05:14:08.469Z,100749.16
2023-04-06T05:16:35.347Z,100964.47
2023-04-06T05:19:02.270Z,100970.84
2023-04-06T05:21:29.298Z,100934.47
2023-04-06T05:23:56.001Z,100859.13
2023-04-06T05:26:22.644Z,100901.81
2023-04-06T05:28:49.279Z,100973.25
2023-04-06T05:31:17.259Z,100956.56
2023-04-06T05:33:44.492Z,100977.47
2023-04-06T05:36:13.712Z,100939.28
2023-04-06T05:38:41.581Z,100958.63
2023-04-06T05:41:08.237Z,100973.72
2023-04-06T05:43:34.964Z,100962.50
2023-04-06T05:46:01.577Z,100950.91
2023-04-06T05:48:28.220Z,100956.47
2023-04-06T05:50:56.070Z,100909.41
2023-04-06T05:53:22.737Z,100937.72
2023-04-06T05:55:49.560Z,100961.78
2023-04-06T05:58:18.168Z,100973.44
2023-04-06T06:00:46.849Z,100957.75
2023-04-06T06:03:13.833Z,100935.47
2023-04-06T06:05:40.639Z,100820.03
2023-04-06T06:08:08.318Z,100892.72
2023-04-06T06:10:35.628Z,100857.19
2023-04-06T06:13:02.297Z,100975.84
2023-04-06T06:15:29.174Z,100930.31
2023-04-06T06:17:55.745Z,100915.03
2023-04-06T06:20:23.134Z,100934.38
2023-04-06T06:22:49.780Z,100966.00
2023-04-06T06:25:17.015Z,100964.31
2023-04-06T06:27:43.965Z,100963.84
2023-04-06T06:30:10.986Z,100793.34
2023-04-06T06:32:37.704Z,100923.81
2023-04-06T06:35:05.154Z,100852.59
2023-04-06T06:37:31.807Z,100962.75
2023-04-06T06:39:58.784Z,100898.06
2023-04-06T06:42:25.342Z,100869.63
2023-04-06T06:44:55.012Z,100770.50
2023-04-06T06:47:21.588Z,100963.66
2023-04-06T06:49:48.223Z,100775.09
2023-04-06T06:52:14.981Z,100851.28
2023-04-06T06:54:41.727Z,100968.69
2023-04-06T06:57:08.316Z,100915.63
2023-04-06T06:59:35.016Z,100945.03
2023-04-06T07:02:01.847Z,100964.19
2023-04-06T07:04:28.493Z,100895.16
2023-04-06T07:06:55.167Z,100884.47
2023-04-06T07:09:21.881Z,100951.31
2023-04-06T07:11:49.210Z,100918.16
2023-04-06T07:14:16.966Z,100921.09
2023-04-06T07:16:46.067Z,100936.84
2023-04-06T07:19:12.842Z,100868.53
2023-04-06T07:21:39.823Z,100661.16
2023-04-06T07:24:06.797Z,100950.28
2023-04-06T07:26:33.875Z,100959.09
2023-04-06T07:29:00.627Z,100937.53
2023-04-06T07:31:27.450Z,100905.75
2023-04-06T07:33:54.714Z,100780.81
2023-04-06T07:36:21.573Z,100921.97
2023-04-06T07:38:48.275Z,100950.94
2023-04-06T07:41:14.876Z,100767.25
2023-04-06T07:43:41.560Z,100873.38
2023-04-06T07:46:08.244Z,100899.22
2023-04-06T07:48:35.184Z,100929.53
2023-04-06T07:51:03.663Z,100943.25
2023-04-06T07:53:30.322Z,100767.09
2023-04-06T07:55:57.109Z,100927.34
2023-04-06T07:58:24.171Z,100855.13
2023-04-06T08:00:50.931Z,100819.41
2023-04-06T08:03:18.166Z,100899.16
2023-04-06T08:05:45.564Z,100888.31
2023-04-06T08:08:12.280Z,100892.09
2023-04-06T08:10:38.944Z,100916.31
2023-04-06T08:13:05.594Z,100895.22
2023-04-06T08:15:32.323Z,100916.72
2023-04-06T08:17:58.895Z,100917.16
2023-04-06T08:20:25.661Z,100878.88
2023-04-06T08:22:53.644Z,100910.31
2023-04-06T08:25:20.558Z,100940.97
2023-04-06T08:27:47.321Z,100882.38
2023-04-06T08:30:16.010Z,100936.16
2023-04-06T08:32:43.087Z,100937.84
2023-04-06T08:35:10.146Z,100916.59
2023-04-06T08:37:36.760Z,100926.31
2023-04-06T08:40:04.335Z,100938.34
2023-04-06T08:42:33.989Z,100833.25
2023-04-06T08:45:01.401Z,100895.16
2023-04-06T08:47:28.338Z,100908.19
2023-04-06T08:49:54.986Z,100923.94
2023-04-06T08:52:21.630Z,100875.34
2023-04-06T08:54:48.689Z,100870.81
2023-04-06T08:57:16.082Z,100924.31
2023-04-06T08:59:43.102Z,100890.03
2023-04-06T09:02:18.292Z,100878.69
2023-04-06T09:04:47.445Z,100815.41
2023-04-06T09:07:15.484Z,100921.03
2023-04-06T09:09:48.510Z,100831.75
2023-04-06T09:12:32.252Z,100909.13
2023-04-06T09:14:59.667Z,100875.75
2023-04-06T09:17:33.536Z,100827.44
2023-04-06T09:20:01.753Z,100885.47
2023-04-06T09:22:37.379Z,100889.78
2023-04-06T09:25:04.432Z,100760.56
2023-04-06T09:27:36.418Z,100887.78
2023-04-06T09:30:14.951Z,100877.59
2023-04-06T09:33:00.722Z,100839.53
2023-04-06T09:35:28.533Z,100899.69
2023-04-06T09:37:56.333Z,100812.47
2023-04-06T09:40:23.284Z,100880.06
2023-04-06T09:42:53.637Z,100879.28
2023-04-06T09:45:21.798Z,100844.50
2023-04-06T09:47:48.865Z,100834.09
2023-04-06T09:50:17.284Z,100869.25
2023-04-06T09:52:49.860Z,100871.38
2023-04-06T09:55:24.613Z,100861.06
2023-04-06T09:58:03.910Z,100866.00
2023-04-06T10:00:33.757Z,100824.69
2023-04-06T10:03:18.800Z,100864.34
2023-04-06T10:05:57.024Z,100811.16
2023-04-06T10:08:26.295Z,100847.00
2023-04-06T10:10:53.610Z,100810.69
2023-04-06T10:13:20.603Z,100850.34
2023-04-06T10:15:48.044Z,100839.53
2023-04-06T10:18:15.222Z,100853.50
2023-04-06T10:20:51.497Z,100806.72
2023-04-06T10:23:30.384Z,100850.75
2023-04-06T10:25:58.837Z,100834.09
2023-04-06T10:28:26.589Z,100849.59
2023-04-06T10:31:05.834Z,100827.56
2023-04-06T10:33:35.762Z,100855.28
2023-04-06T10:36:16.087Z,100852.72
2023-04-06T10:38:43.634Z,100851.72
2023-04-06T10:41:11.677Z,100776.22
2023-04-06T10:43:39.770Z,100829.53
2023-04-06T10:46:08.085Z,100857.06
2023-04-06T10:48:46.620Z,100847.75
2023-04-06T10:51:18.071Z,100840.69
2023-04-06T10:53:47.764Z,100804.19
2023-04-06T10:56:15.857Z,100702.59
2023-04-06T10:59:00.928Z,100830.28
2023-04-06T11:01:28.549Z,100809.19
2023-04-06T11:03:56.972Z,100771.75
2023-04-06T11:06:25.590Z,100807.47
2023-04-06T11:08:52.932Z,100719.44
2023-04-06T11:11:21.791Z,100821.38
2023-04-06T11:13:52.256Z,100839.44
2023-04-06T11:16:24.916Z,100835.63
2023-04-06T11:18:53.850Z,100758.34
2023-04-06T11:21:21.987Z,100814.38
2023-04-06T11:23:48.638Z,100839.13
2023-04-06T11:26:15.868Z,100818.00
2023-04-06T11:28:44.330Z,100818.06
2023-04-06T11:31:12.438Z,100758.09
2023-04-06T11:33:39.898Z,100795.19
2023-04-06T11:36:10.949Z,100790.34
2023-04-06T11:38:40.276Z,100821.13
2023-04-06T11:41:07.407Z,100823.97
2023-04-06T11:43:34.051Z,100820.88
2023-04-06T11:46:03.207Z,100823.78
2023-04-06T11:48:30.507Z,100769.69
2023-04-06T11:51:04.670Z,100813.97
2023-04-06T11:53:31.537Z,100683.72
2023-04-06T11:55:58.102Z,100763.84
2023-04-06T11:58:24.726Z,100797.13
2023-04-06T12:00:51.486Z,100797.00
2023-04-06T12:03:18.156Z,100775.97
2023-04-06T12:05:45.109Z,100811.00
2023-04-06T12:08:11.865Z,100799.78
2023-04-06T12:10:38.704Z,100820.78
2023-04-06T12:13:05.702Z,100776.47
2023-04-06T12:15:32.364Z,100775.59
2023-04-06T12:18:00.015Z,100809.00
2023-04-06T12:20:27.645Z,100800.75
2023-04-06T12:22:54.552Z,100727.59
2023-04-06T12:25:21.572Z,100762.53
2023-04-06T12:27:49.669Z,100697.22
2023-04-06T12:30:16.670Z,100691.81
2023-04-06T12:32:43.452Z,100782.44
2023-04-06T12:35:12.589Z,100761.81
2023-04-06T12:37:39.241Z,100781.25
2023-04-06T12:40:06.394Z,100763.66
2023-04-06T12:42:33.146Z,100787.34
2023-04-06T12:45:01.419Z,100758.88
2023-04-06T12:47:28.792Z,100762.06
2023-04-06T12:49:55.782Z,100736.66
2023-04-06T12:52:22.406Z,100735.47
2023-04-06T12:54:50.077Z,100741.09
2023-04-06T12:57:18.104Z,100736.59
2023-04-06T12:59:45.825Z,100805.81
2023-04-06T13:02:12.998Z,100760.00
2023-04-06T13:04:40.474Z,100759.91
2023-04-06T13:07:07.070Z,100747.22
2023-04-06T13:09:34.132Z,100777.13
2023-04-06T13:12:01.979Z,100710.78
2023-04-06T13:14:28.933Z,100779.59
2023-04-06T13:16:55.785Z,100782.47
2023-04-06T13:19:22.740Z,100756.28
2023-04-06T13:21:49.606Z,100710.94
2023-04-06T13:24:17.795Z,100775.22
2023-04-06T13:26:44.979Z,100774.72
2023-04-06T13:29:11.888Z,100771.03
2023-04-06T13:31:39.845Z,100717.34
2023-04-06T13:34:06.950Z,100724.38
2023-04-06T13:36:33.668Z,100723.16
2023-04-06T13:39:00.913Z,100771.03
2023-04-06T13:41:27.867Z,100709.06
2023-04-06T13:43:54.482Z,100770.38
2023-04-06T13:46:21.377Z,100765.75
2023-04-06T13:48:48.206Z,100720.53
2023-04-06T13:51:15.941Z,100764.38
2023-04-06T13:53:42.647Z,100709.56
2023-04-06T13:56:09.354Z,100757.94
2023-04-06T13:58:37.129Z,100718.47
2023-04-06T14:01:08.536Z,100751.38
2023-04-06T14:03:35.900Z,100709.59
2023-04-06T14:08:42.604Z,100726.91
2023-04-06T14:11:13.383Z,100752.94
2023-04-06T14:13:40.438Z,100744.94
2023-04-06T14:16:08.046Z,100749.59
2023-04-06T14:18:35.119Z,100733.50
2023-04-06T14:21:01.713Z,100750.03
2023-04-06T14:23:29.150Z,100676.50
2023-04-06T14:26:06.420Z,100603.75
2023-04-06T14:28:37.018Z,100679.44
2023-04-06T14:31:11.567Z,100718.84
2023-04-06T14:33:38.072Z,100716.94
2023-04-06T14:36:05.927Z,100685.16
2023-04-06T14:38:36.512Z,100612.94
2023-04-06T14:41:03.129Z,100747.38
2023-04-06T14:43:29.706Z,100725.22
2023-04-06T14:46:00.900Z,100718.50
2023-04-06T14:48:27.656Z,100728.13
2023-04-06T14:50:55.883Z,100702.31
2023-04-06T14:53:23.658Z,100703.22
2023-04-06T14:55:52.583Z,100699.38
2023-04-06T14:58:20.051Z,100756.81
2023-04-06T15:00:47.223Z,100748.06
2023-04-06T15:03:14.243Z,100733.56
2023-04-06T15:05:41.249Z,100743.19
2023-04-06T15:08:10.100Z,100665.16
2023-04-06T15:10:37.266Z,100760.22
2023-04-06T15:13:04.175Z,100717.78
2023-04-06T15:15:31.062Z,100712.75
2023-04-06T15:17:58.298Z,100749.22
2023-04-06T15:20:24.939Z,100750.66
2023-04-06T15:22:51.559Z,100733.81
2023-04-06T15:25:18.290Z,100745.06
2023-04-06T15:27:48.458Z,100732.16
2023-04-06T15:30:15.098Z,100754.81
2023-04-06T15:32:52.844Z,100732.50
2023-04-06T15:35:19.442Z,100760.88
2023-04-06T15:37:46.522Z,100714.44
2023-04-06T15:40:15.325Z,100763.38
2023-04-06T15:42:43.226Z,100711.06
2023-04-06T15:45:11.274Z,100754.53
2023-04-06T15:47:39.406Z,100734.88
2023-04-06T15:50:09.308Z,100735.03
2023-04-06T15:52:37.057Z,100721.03
2023-04-06T15:55:05.896Z,100717.88
2023-04-06T15:57:32.919Z,100764.19
2023-04-06T15:59:59.829Z,100753.94
2023-04-06T16:02:27.070Z,100724.84
2023-04-06T16:05:04.104Z,100751.97
2023-04-06T16:07:31.952Z,100759.66
2023-04-06T16:10:01.652Z,100759.69
2023-04-06T16:12:29.172Z,100735.69
2023-04-06T16:14:58.246Z,100665.72
2023-04-06T16:17:24.762Z,100697.69
2023-04-06T16:19:51.500Z,100746.91
2023-04-06T16:22:18.123Z,100746.25
2023-04-06T16:24:44.794Z,100758.06
2023-04-06T16:27:12.171Z,100770.34
2023-04-06T16:29:38.830Z,100730.16
2023-04-06T16:32:05.875Z,100728.88
2023-04-06T16:34:35.388Z,100787.50
2023-04-06T16:37:02.153Z,100773.53
2023-04-06T16:39:28.860Z,100764.50
2023-04-06T16:41:56.774Z,100753.72
2023-04-06T16:44:23.721Z,100668.22
2023-04-06T16:46:50.966Z,100784.91
2023-04-06T16:49:20.049Z,100773.88
2023-04-06T16:51:47.030Z,100741.50
2023-04-06T16:54:13.650Z,100757.50
2023-04-06T16:56:40.797Z,100693.44
2023-04-06T16:59:10.826Z,100784.16
2023-04-06T17:01:37.752Z,100801.88
2023-04-06T17:04:04.496Z,100759.44
2023-04-06T17:06:31.643Z,100734.78
2023-04-06T17:08:59.749Z,100580.94
2023-04-06T17:11:31.714Z,100703.19
2023-04-06T17:13:59.323Z,100728.56
2023-04-06T17:16:27.821Z,100807.06
2023-04-06T17:18:56.140Z,100805.94
2023-04-06T17:21:22.676Z,100809.59
2023-04-06T17:23:49.501Z,100796.31
2023-04-06T17:26:16.260Z,100795.28
2023-04-06T17:28:42.835Z,100780.47
2023-04-06T17:31:10.919Z,100828.66
2023-04-06T17:33:42.685Z,100777.00
2023-04-06T17:36:12.412Z,100827.91
2023-04-06T17:38:43.506Z,100836.56
2023-04-06T17:41:14.149Z,100679.91
2023-04-06T17:43:41.278Z,100810.22
2023-04-06T17:46:08.100Z,100811.91
2023-04-06T17:48:34.898Z,100815.44
2023-04-06T17:51:01.761Z,100750.47
2023-04-06T17:53:32.195Z,100830.66
2023-04-06T17:56:03.509Z,100800.38
2023-04-06T17:58:30.634Z,100836.03
2023-04-06T18:00:57.842Z,100785.53
2023-04-06T18:03:24.742Z,100817.97
2023-04-06T18:05:51.712Z,100813.00
2023-04-06T18:08:18.910Z,100783.97
2023-04-06T18:10:46.433Z,100857.81
2023-04-06T18:13:13.634Z,100818.94
2023-04-06T18:15:40.583Z,100858.72
2023-04-06T18:18:07.928Z,100858.72
2023-04-06T18:20:39.675Z,100831.63
2023-04-06T18:23:06.834Z,100865.09
2023-04-06T18:25:39.031Z,100861.88
2023-04-06T18:28:06.802Z,100710.09
2023-04-06T18:30:33.362Z,100803.25
2023-04-06T18:33:00.472Z,100779.97
2023-04-06T18:35:27.152Z,100863.28
2023-04-06T18:37:54.522Z,100860.00
2023-04-06T18:40:32.163Z,100852.91
2023-04-06T18:43:00.477Z,100837.41
2023-04-06T18:45:28.043Z,100854.25
2023-04-06T18:47:56.966Z,100813.34
2023-04-06T18:50:23.604Z,100856.50
2023-04-06T18:52:55.338Z,100853.75
2023-04-06T18:55:24.568Z,100820.25
2023-04-06T18:57:54.779Z,100733.75
2023-04-06T19:00:21.486Z,100841.72
2023-04-06T19:02:50.502Z,100833.47
2023-04-06T19:05:18.045Z,100829.69
2023-04-06T19:07:49.512Z,100851.50
2023-04-06T19:10:16.550Z,100810.78
2023-04-06T19:12:44.133Z,100861.88
2023-04-06T19:15:15.692Z,100860.69
2023-04-06T19:17:43.032Z,100829.72
2023-04-06T19:20:10.102Z,100811.56
2023-04-06T19:22:38.244Z,100861.88
2023-04-06T19:25:06.656Z,100861.69
2023-04-06T19:27:35.178Z,100803.41
2023-04-06T19:30:04.535Z,100843.78
2023-04-06T19:32:31.865Z,100847.00
2023-04-06T19:34:59.691Z,100857.16
2023-04-06T19:37:27.269Z,100847.41
2023-04-06T19:39:53.993Z,100828.22
2023-04-06T19:42:23.200Z,100830.28
2023-04-06T19:44:50.143Z,100842.47
2023-04-06T19:47:18.332Z,100808.13
2023-04-06T19:49:45.408Z,100814.25
2023-04-06T19:52:12.381Z,100763.22
2023-04-06T19:54:39.654Z,100844.28
2023-04-06T19:57:06.926Z,100825.06
2023-04-06T19:59:34.650Z,100831.13
2023-04-06T20:02:01.417Z,100836.47
2023-04-06T20:04:29.281Z,100783.84
2023-04-06T20:06:55.968Z,100800.69
2023-04-06T20:09:22.873Z,100804.91
2023-04-06T20:11:49.383Z,100788.31
2023-04-06T20:14:17.885Z,100817.19
2023-04-06T20:16:44.609Z,100789.53
2023-04-06T20:19:11.395Z,100815.09
2023-04-06T20:21:39.487Z,100801.72
2023-04-06T20:24:07.052Z,100736.56
2023-04-06T20:26:33.914Z,100753.31
2023-04-06T20:29:00.943Z,100791.72
2023-04-06T20:31:28.217Z,100794.88
2023-04-06T20:33:55.899Z,100787.06
2023-04-06T20:36:22.512Z,100786.41
2023-04-06T20:38:49.460Z,100806.81
2023-04-06T20:41:16.546Z,100720.19
2023-04-06T20:43:43.318Z,100765.34
2023-04-06T20:46:15.815Z,100773.00
2023-04-06T20:48:42.561Z,100788.66
2023-04-06T20:51:09.292Z,100785.03
2023-04-06T20:53:35.967Z,100752.56
2023-04-06T20:56:03.003Z,100780.19
2023-04-06T20:58:29.679Z,100701.41
2023-04-06T21:00:56.596Z,100745.69
2023-04-06T21:03:24.299Z,100778.72
2023-04-06T21:05:55.850Z,100782.28
2023-04-06T21:08:22.438Z,100717.84
2023-04-06T21:10:49.026Z,100785.69
2023-04-06T21:13:15.665Z,100729.25
2023-04-06T21:15:42.663Z,100755.38
2023-04-06T21:18:09.293Z,100725.09
2023-04-06T21:20:36.060Z,100680.88
2023-04-06T21:23:02.749Z,100748.84
2023-04-06T21:25:29.345Z,100729.28
2023-04-06T21:27:56.031Z,100728.75
2023-04-06T21:30:22.708Z,100722.19
2023-04-06T21:32:49.254Z,100749.00
2023-04-06T21:35:16.532Z,100663.25
2023-04-06T21:37:43.089Z,100661.78
2023-04-06T21:40:10.150Z,100723.44
2023-04-06T21:42:36.851Z,100702.81
2023-04-06T21:45:03.758Z,100712.84
2023-04-06T21:47:30.266Z,100744.84
2023-04-06T21:49:56.849Z,100682.34
2023-04-06T21:52:23.392Z,100643.50
2023-04-06T21:54:49.890Z,100595.06
2023-04-06T21:57:16.476Z,100666.75
2023-04-06T21:59:43.080Z,100661.47
2023-04-06T22:02:09.695Z,100716.34
2023-04-06T22:04:36.790Z,100693.91
2023-04-06T22:07:03.692Z,100731.81
2023-04-06T22:09:31.401Z,100677.19
2023-04-06T22:11:58.102Z,100684.69
2023-04-06T22:14:25.727Z,100735.44
2023-04-06T22:16:52.476Z,100653.13
2023-04-06T22:19:19.005Z,100661.56
2023-04-06T22:21:45.743Z,100692.78
2023-04-06T22:24:12.997Z,100714.34
2023-04-06T22:26:39.805Z,100668.94
2023-04-06T22:29:06.536Z,100695.59
2023-04-06T22:31:33.089Z,100700.16
2023-04-06T22:33:59.681Z,100719.94
2023-04-06T22:36:27.270Z,100701.00
2023-04-06T22:38:53.840Z,100511.91
2023-04-06T22:41:21.069Z,100633.38
2023-04-06T22:43:47.637Z,100671.47
2023-04-06T22:46:14.136Z,100711.31
2023-04-06T22:48:40.725Z,100697.94
2023-04-06T22:51:07.363Z,100719.19
2023-04-06T22:53:34.273Z,100718.56
2023-04-06T22:56:00.865Z,100681.97
2023-04-06T22:58:27.619Z,100704.91
2023-04-06T23:00:54.149Z,100702.69
2023-04-06T23:03:21.251Z,100699.59
2023-04-06T23:05:47.864Z,100677.41
2023-04-06T23:08:14.588Z,100590.28
2023-04-06T23:10:43.759Z,100651.03
2023-04-06T23:13:10.871Z,100662.19
2023-04-06T23:15:37.558Z,100692.44
2023-04-06T23:18:04.228Z,100693.44
2023-04-06T23:20:32.243Z,100674.97
2023-04-06T23:22:58.967Z,100652.09
2023-04-06T23:25:27.135Z,100618.03
2023-04-06T23:27:53.760Z,100669.78
2023-04-06T23:30:20.519Z,100628.03
2023-04-06T23:32:47.229Z,100599.41
2023-04-06T23:35:15.235Z,100517.03
2023-04-06T23:37:41.913Z,100666.81
2023-04-06T23:40:09.011Z,100633.53
2023-04-06T23:42:35.479Z,100681.97
2023-04-06T23:45:06.146Z,100684.03
2023-04-06T23:47:33.139Z,100623.03
2023-04-06T23:50:00.191Z,100654.47
2023-04-06T23:52:27.345Z,100562.69
2023-04-06T23:54:53.982Z,100671.50
2023-04-06T23:57:20.559Z,100688.22
2023-04-06T23:59:47.120Z,100638.06
